sensor_id;sensor_type;location;lat;lon;timestamp;P1;durP1;ratioP1;P2;durP2;ratioP2
7444;SDS011;3764;48.126;11.594;2022-08-04T00:26:40;3.93;;;3.53;;
7444;SDS011;3764;48.126;11.594;2022-08-04T02:36:38;4.50;;;3.70;;
7444;SDS011;3764;48.126;11.594;2022-08-04T02:39:08;7.63;;;3.63;;
7444;SDS011;3764;48.126;11.594;2022-08-04T02:41:37;4.83;;;3.23;;
7444;SDS011;3764;48.126;11.594;2022-08-04T02:44:05;3.90;;;3.50;;
7444;SDS011;3764;48.126;11.594;2022-08-04T02:46:34;3.90;;;3.50;;
7444;SDS011;3764;48.126;11.594;2022-08-04T02:49:03;4.60;;;4.23;;
7444;SDS011;3764;48.126;11.594;2022-08-04T02:51:32;6.93;;;4.10;;
7444;SDS011;3764;48.126;11.594;2022-08-04T02:54:03;5.47;;;3.80;;
7444;SDS011;3764;48.126;11.594;2022-08-04T02:56:32;4.90;;;4.17;;
7444;SDS011;3764;48.126;11.594;2022-08-04T02:59:02;4.60;;;3.67;;
7444;SDS011;3764;48.126;11.594;2022-08-04T03:01:30;3.90;;;3.60;;
7444;SDS011;3764;48.126;11.594;2022-08-04T03:04:01;5.47;;;4.20;;
7444;SDS011;3764;48.126;11.594;2022-08-04T03:07:02;4.47;;;4.07;;
7444;SDS011;3764;48.126;11.594;2022-08-04T03:12:54;4.27;;;3.87;;
7444;SDS011;3764;48.126;11.594;2022-08-04T03:18:50;7.80;;;3.90;;
7444;SDS011;3764;48.126;11.594;2022-08-04T03:27:46;4.50;;;4.10;;
7444;SDS011;3764;48.126;11.594;2022-08-04T03:30:32;4.03;;;3.63;;
7444;SDS011;3764;48.126;11.594;2022-08-04T03:33:23;7.10;;;4.10;;
7444;SDS011;3764;48.126;11.594;2022-08-04T03:36:11;6.23;;;4.43;;
7444;SDS011;3764;48.126;11.594;2022-08-04T03:39:02;4.43;;;4.00;;
7444;SDS011;3764;48.126;11.594;2022-08-04T03:48:20;4.63;;;4.00;;
7444;SDS011;3764;48.126;11.594;2022-08-04T03:51:24;4.50;;;3.53;;
7444;SDS011;3764;48.126;11.594;2022-08-04T03:54:29;5.57;;;3.63;;
7444;SDS011;3764;48.126;11.594;2022-08-04T03:57:24;4.63;;;4.13;;
7444;SDS011;3764;48.126;11.594;2022-08-04T04:00:06;4.10;;;3.70;;
7444;SDS011;3764;48.126;11.594;2022-08-04T04:02:39;4.43;;;4.03;;
7444;SDS011;3764;48.126;11.594;2022-08-04T04:05:40;4.00;;;3.53;;
7444;SDS011;3764;48.126;11.594;2022-08-04T04:11:37;5.50;;;3.90;;
7444;SDS011;3764;48.126;11.594;2022-08-04T04:14:40;6.00;;;3.80;;
7444;SDS011;3764;48.126;11.594;2022-08-04T04:20:29;4.40;;;3.30;;
7444;SDS011;3764;48.126;11.594;2022-08-04T04:26:36;13.70;;;4.30;;
7444;SDS011;3764;48.126;11.594;2022-08-04T04:29:21;6.63;;;4.23;;
7444;SDS011;3764;48.126;11.594;2022-08-04T04:32:09;4.93;;;4.17;;
7444;SDS011;3764;48.126;11.594;2022-08-04T04:34:49;5.57;;;4.40;;
7444;SDS011;3764;48.126;11.594;2022-08-04T04:37:46;4.20;;;3.80;;
7444;SDS011;3764;48.126;11.594;2022-08-04T04:40:27;5.63;;;4.43;;
7444;SDS011;3764;48.126;11.594;2022-08-04T04:43:10;5.63;;;4.60;;
7444;SDS011;3764;48.126;11.594;2022-08-04T04:45:49;4.97;;;4.20;;
7444;SDS011;3764;48.126;11.594;2022-08-04T04:48:29;8.30;;;4.47;;
7444;SDS011;3764;48.126;11.594;2022-08-04T04:51:06;4.10;;;3.70;;
7444;SDS011;3764;48.126;11.594;2022-08-04T04:53:44;4.90;;;4.37;;
7444;SDS011;3764;48.126;11.594;2022-08-04T04:56:18;7.20;;;4.30;;
7444;SDS011;3764;48.126;11.594;2022-08-04T04:58:53;8.40;;;4.53;;
7444;SDS011;3764;48.126;11.594;2022-08-04T05:01:33;4.47;;;4.00;;
7444;SDS011;3764;48.126;11.594;2022-08-04T05:10:30;6.07;;;4.30;;
7444;SDS011;3764;48.126;11.594;2022-08-04T05:13:09;5.17;;;4.37;;
7444;SDS011;3764;48.126;11.594;2022-08-04T05:15:50;4.40;;;4.00;;
7444;SDS011;3764;48.126;11.594;2022-08-04T05:18:21;7.23;;;4.43;;
7444;SDS011;3764;48.126;11.594;2022-08-04T05:20:52;6.10;;;4.57;;
7444;SDS011;3764;48.126;11.594;2022-08-04T05:23:24;4.40;;;3.57;;
7444;SDS011;3764;48.126;11.594;2022-08-04T05:25:56;4.40;;;4.00;;
7444;SDS011;3764;48.126;11.594;2022-08-04T05:28:27;3.80;;;3.50;;
7444;SDS011;3764;48.126;11.594;2022-08-04T05:30:59;4.47;;;4.07;;
7444;SDS011;3764;48.126;11.594;2022-08-04T05:33:31;5.03;;;4.10;;
7444;SDS011;3764;48.126;11.594;2022-08-04T05:36:08;4.90;;;4.20;;
7444;SDS011;3764;48.126;11.594;2022-08-04T05:38:38;4.03;;;3.60;;
7444;SDS011;3764;48.126;11.594;2022-08-04T05:41:09;4.53;;;3.90;;
7444;SDS011;3764;48.126;11.594;2022-08-04T05:43:37;5.60;;;4.43;;
7444;SDS011;3764;48.126;11.594;2022-08-04T05:46:06;4.60;;;4.20;;
7444;SDS011;3764;48.126;11.594;2022-08-04T05:48:35;5.30;;;4.80;;
7444;SDS011;3764;48.126;11.594;2022-08-04T05:53:30;4.60;;;4.20;;
7444;SDS011;3764;48.126;11.594;2022-08-04T05:55:58;4.43;;;4.03;;
7444;SDS011;3764;48.126;11.594;2022-08-04T05:58:28;4.70;;;4.13;;
7444;SDS011;3764;48.126;11.594;2022-08-04T06:00:57;5.83;;;4.90;;
7444;SDS011;3764;48.126;11.594;2022-08-04T06:03:25;6.27;;;4.87;;
7444;SDS011;3764;48.126;11.594;2022-08-04T06:05:54;4.90;;;4.50;;
7444;SDS011;3764;48.126;11.594;2022-08-04T06:08:24;6.23;;;4.43;;
7444;SDS011;3764;48.126;11.594;2022-08-04T06:10:53;5.40;;;4.90;;
7444;SDS011;3764;48.126;11.594;2022-08-04T06:13:25;5.50;;;4.40;;
7444;SDS011;3764;48.126;11.594;2022-08-04T06:15:56;4.80;;;4.07;;
7444;SDS011;3764;48.126;11.594;2022-08-04T06:18:26;5.50;;;4.27;;
7444;SDS011;3764;48.126;11.594;2022-08-04T06:20:55;5.80;;;4.53;;
7444;SDS011;3764;48.126;11.594;2022-08-04T06:23:26;5.60;;;3.97;;
7444;SDS011;3764;48.126;11.594;2022-08-04T06:25:56;4.07;;;3.70;;
7444;SDS011;3764;48.126;11.594;2022-08-04T06:28:26;5.47;;;4.97;;
7444;SDS011;3764;48.126;11.594;2022-08-04T06:30:55;4.40;;;4.00;;
7444;SDS011;3764;48.126;11.594;2022-08-04T06:33:27;5.97;;;4.40;;
7444;SDS011;3764;48.126;11.594;2022-08-04T06:35:59;5.10;;;4.60;;
7444;SDS011;3764;48.126;11.594;2022-08-04T06:38:28;5.37;;;4.07;;
7444;SDS011;3764;48.126;11.594;2022-08-04T06:40:57;4.53;;;4.13;;
7444;SDS011;3764;48.126;11.594;2022-08-04T06:43:28;6.50;;;5.90;;
7444;SDS011;3764;48.126;11.594;2022-08-04T06:45:58;6.47;;;5.27;;
7444;SDS011;3764;48.126;11.594;2022-08-04T06:48:27;9.23;;;6.03;;
7444;SDS011;3764;48.126;11.594;2022-08-04T06:50:56;7.07;;;5.60;;
7444;SDS011;3764;48.126;11.594;2022-08-04T06:53:25;9.33;;;5.90;;
7444;SDS011;3764;48.126;11.594;2022-08-04T06:55:53;5.13;;;4.63;;
7444;SDS011;3764;48.126;11.594;2022-08-04T06:58:21;5.90;;;3.93;;
7444;SDS011;3764;48.126;11.594;2022-08-04T07:03:38;4.70;;;4.17;;
7444;SDS011;3764;48.126;11.594;2022-08-04T07:06:06;5.60;;;4.60;;
7444;SDS011;3764;48.126;11.594;2022-08-04T07:08:33;5.83;;;5.30;;
7444;SDS011;3764;48.126;11.594;2022-08-04T07:11:03;4.83;;;4.40;;
7444;SDS011;3764;48.126;11.594;2022-08-04T07:13:31;5.03;;;4.50;;
7444;SDS011;3764;48.126;11.594;2022-08-04T07:15:59;5.93;;;4.93;;
7444;SDS011;3764;48.126;11.594;2022-08-04T07:18:27;6.00;;;4.13;;
7444;SDS011;3764;48.126;11.594;2022-08-04T07:20:57;5.17;;;4.67;;
7444;SDS011;3764;48.126;11.594;2022-08-04T07:23:25;5.20;;;4.70;;
7444;SDS011;3764;48.126;11.594;2022-08-04T07:25:53;5.60;;;4.63;;
7444;SDS011;3764;48.126;11.594;2022-08-04T07:28:23;4.80;;;4.40;;
7444;SDS011;3764;48.126;11.594;2022-08-04T07:30:52;4.93;;;4.43;;
7444;SDS011;3764;48.126;11.594;2022-08-04T07:33:21;5.17;;;4.63;;
7444;SDS011;3764;48.126;11.594;2022-08-04T07:35:49;6.33;;;4.43;;
7444;SDS011;3764;48.126;11.594;2022-08-04T07:38:19;5.03;;;4.23;;
7444;SDS011;3764;48.126;11.594;2022-08-04T07:40:47;5.23;;;4.50;;
7444;SDS011;3764;48.126;11.594;2022-08-04T07:43:14;5.80;;;4.20;;
7444;SDS011;3764;48.126;11.594;2022-08-04T07:45:42;4.10;;;3.70;;
7444;SDS011;3764;48.126;11.594;2022-08-04T07:48:09;4.93;;;4.13;;
7444;SDS011;3764;48.126;11.594;2022-08-04T07:50:37;7.83;;;4.10;;
7444;SDS011;3764;48.126;11.594;2022-08-04T07:53:08;5.17;;;4.67;;
7444;SDS011;3764;48.126;11.594;2022-08-04T07:55:39;5.67;;;5.07;;
7444;SDS011;3764;48.126;11.594;2022-08-04T07:58:06;4.90;;;4.40;;
7444;SDS011;3764;48.126;11.594;2022-08-04T08:00:33;5.70;;;4.80;;
7444;SDS011;3764;48.126;11.594;2022-08-04T08:03:00;5.47;;;4.77;;
7444;SDS011;3764;48.126;11.594;2022-08-04T08:05:28;5.60;;;5.10;;
7444;SDS011;3764;48.126;11.594;2022-08-04T08:07:56;5.03;;;4.53;;
7444;SDS011;3764;48.126;11.594;2022-08-04T08:10:24;6.80;;;5.00;;
7444;SDS011;3764;48.126;11.594;2022-08-04T08:12:53;5.30;;;4.80;;
7444;SDS011;3764;48.126;11.594;2022-08-04T08:15:20;5.40;;;3.60;;
7444;SDS011;3764;48.126;11.594;2022-08-04T08:17:48;5.10;;;4.60;;
7444;SDS011;3764;48.126;11.594;2022-08-04T08:20:15;4.40;;;4.00;;
7444;SDS011;3764;48.126;11.594;2022-08-04T08:22:42;5.57;;;4.17;;
7444;SDS011;3764;48.126;11.594;2022-08-04T08:25:10;4.57;;;4.17;;
7444;SDS011;3764;48.126;11.594;2022-08-04T08:27:37;4.77;;;4.27;;
7444;SDS011;3764;48.126;11.594;2022-08-04T08:30:06;5.77;;;4.60;;
7444;SDS011;3764;48.126;11.594;2022-08-04T08:32:34;5.67;;;4.70;;
7444;SDS011;3764;48.126;11.594;2022-08-04T08:35:02;4.50;;;4.07;;
7444;SDS011;3764;48.126;11.594;2022-08-04T08:37:32;5.33;;;4.67;;
7444;SDS011;3764;48.126;11.594;2022-08-04T08:40:13;4.40;;;4.00;;
7444;SDS011;3764;48.126;11.594;2022-08-04T08:43:07;4.63;;;4.00;;
7444;SDS011;3764;48.126;11.594;2022-08-04T08:46:08;4.30;;;3.90;;
7444;SDS011;3764;48.126;11.594;2022-08-04T08:52:14;5.33;;;4.80;;
7444;SDS011;3764;48.126;11.594;2022-08-04T08:54:53;4.10;;;3.73;;
7444;SDS011;3764;48.126;11.594;2022-08-04T08:57:38;4.20;;;3.80;;
7444;SDS011;3764;48.126;11.594;2022-08-04T09:00:13;4.90;;;4.40;;
7444;SDS011;3764;48.126;11.594;2022-08-04T09:02:52;4.90;;;4.47;;
7444;SDS011;3764;48.126;11.594;2022-08-04T09:11:36;4.90;;;4.40;;
7444;SDS011;3764;48.126;11.594;2022-08-04T09:14:08;6.53;;;3.87;;
7444;SDS011;3764;48.126;11.594;2022-08-04T09:16:44;7.60;;;6.63;;
7444;SDS011;3764;48.126;11.594;2022-08-04T09:19:20;6.50;;;5.80;;
7444;SDS011;3764;48.126;11.594;2022-08-04T09:21:56;5.50;;;5.00;;
7444;SDS011;3764;48.126;11.594;2022-08-04T09:24:28;4.63;;;4.23;;
7444;SDS011;3764;48.126;11.594;2022-08-04T09:27:02;3.80;;;3.50;;
7444;SDS011;3764;48.126;11.594;2022-08-04T09:29:36;5.37;;;4.07;;
7444;SDS011;3764;48.126;11.594;2022-08-04T09:32:10;5.20;;;4.23;;
7444;SDS011;3764;48.126;11.594;2022-08-04T09:34:50;4.67;;;4.23;;
7444;SDS011;3764;48.126;11.594;2022-08-04T09:37:30;5.10;;;4.10;;
7444;SDS011;3764;48.126;11.594;2022-08-04T09:40:05;5.20;;;3.77;;
7444;SDS011;3764;48.126;11.594;2022-08-04T09:42:40;38.83;;;18.13;;
7444;SDS011;3764;48.126;11.594;2022-08-04T09:45:15;133.77;;;46.10;;
7444;SDS011;3764;48.126;11.594;2022-08-04T09:47:51;60.50;;;20.33;;
7444;SDS011;3764;48.126;11.594;2022-08-04T09:50:28;48.00;;;14.90;;
7444;SDS011;3764;48.126;11.594;2022-08-04T09:53:02;90.57;;;31.17;;
7444;SDS011;3764;48.126;11.594;2022-08-04T09:55:41;25.53;;;11.27;;
7444;SDS011;3764;48.126;11.594;2022-08-04T09:58:16;14.20;;;6.97;;
7444;SDS011;3764;48.126;11.594;2022-08-04T10:00:51;14.93;;;7.30;;
7444;SDS011;3764;48.126;11.594;2022-08-04T10:03:24;4.33;;;3.93;;
7444;SDS011;3764;48.126;11.594;2022-08-04T10:06:02;10.00;;;5.23;;
7444;SDS011;3764;48.126;11.594;2022-08-04T10:08:38;4.43;;;3.43;;
7444;SDS011;3764;48.126;11.594;2022-08-04T10:11:21;7.80;;;4.43;;
7444;SDS011;3764;48.126;11.594;2022-08-04T10:13:59;5.43;;;3.77;;
7444;SDS011;3764;48.126;11.594;2022-08-04T10:16:35;3.43;;;2.97;;
7444;SDS011;3764;48.126;11.594;2022-08-04T10:19:14;3.13;;;2.83;;
7444;SDS011;3764;48.126;11.594;2022-08-04T10:21:53;2.50;;;2.30;;
7444;SDS011;3764;48.126;11.594;2022-08-04T10:24:32;3.40;;;2.93;;
7444;SDS011;3764;48.126;11.594;2022-08-04T10:27:08;4.43;;;3.20;;
7444;SDS011;3764;48.126;11.594;2022-08-04T10:29:41;8.40;;;7.50;;
7444;SDS011;3764;48.126;11.594;2022-08-04T10:32:10;4.93;;;4.43;;
7444;SDS011;3764;48.126;11.594;2022-08-04T10:34:43;3.70;;;3.40;;
7444;SDS011;3764;48.126;11.594;2022-08-04T10:37:26;4.20;;;3.40;;
7444;SDS011;3764;48.126;11.594;2022-08-04T10:39:58;3.10;;;2.80;;
7444;SDS011;3764;48.126;11.594;2022-08-04T10:42:49;3.73;;;2.87;;
7444;SDS011;3764;48.126;11.594;2022-08-04T10:45:25;3.23;;;2.93;;
7444;SDS011;3764;48.126;11.594;2022-08-04T10:48:01;3.27;;;3.00;;
7444;SDS011;3764;48.126;11.594;2022-08-04T10:50:33;3.97;;;3.40;;
7444;SDS011;3764;48.126;11.594;2022-08-04T10:53:08;3.97;;;3.57;;
7444;SDS011;3764;48.126;11.594;2022-08-04T10:55:40;4.60;;;4.20;;
7444;SDS011;3764;48.126;11.594;2022-08-04T10:58:14;6.40;;;4.17;;
7444;SDS011;3764;48.126;11.594;2022-08-04T11:00:45;4.10;;;3.70;;
7444;SDS011;3764;48.126;11.594;2022-08-04T11:03:16;3.47;;;3.03;;
7444;SDS011;3764;48.126;11.594;2022-08-04T11:05:47;4.13;;;3.57;;
7444;SDS011;3764;48.126;11.594;2022-08-04T11:08:20;4.00;;;3.67;;
7444;SDS011;3764;48.126;11.594;2022-08-04T11:10:53;3.10;;;2.90;;
7444;SDS011;3764;48.126;11.594;2022-08-04T11:13:27;3.57;;;3.23;;
7444;SDS011;3764;48.126;11.594;2022-08-04T11:16:04;4.47;;;3.20;;
7444;SDS011;3764;48.126;11.594;2022-08-04T11:18:39;3.50;;;3.20;;
7444;SDS011;3764;48.126;11.594;2022-08-04T11:21:14;8.50;;;4.47;;
7444;SDS011;3764;48.126;11.594;2022-08-04T11:23:50;3.57;;;3.13;;
7444;SDS011;3764;48.126;11.594;2022-08-04T11:26:28;3.70;;;3.40;;
7444;SDS011;3764;48.126;11.594;2022-08-04T11:29:04;3.63;;;3.33;;
7444;SDS011;3764;48.126;11.594;2022-08-04T11:31:42;3.50;;;3.20;;
7444;SDS011;3764;48.126;11.594;2022-08-04T11:34:13;3.40;;;3.10;;
7444;SDS011;3764;48.126;11.594;2022-08-04T11:36:48;4.07;;;2.87;;
7444;SDS011;3764;48.126;11.594;2022-08-04T11:39:26;3.47;;;3.17;;
7444;SDS011;3764;48.126;11.594;2022-08-04T11:42:00;3.10;;;2.80;;
7444;SDS011;3764;48.126;11.594;2022-08-04T11:44:35;4.73;;;4.10;;
7444;SDS011;3764;48.126;11.594;2022-08-04T11:47:08;3.73;;;3.43;;
7444;SDS011;3764;48.126;11.594;2022-08-04T11:49:44;3.77;;;3.47;;
7444;SDS011;3764;48.126;11.594;2022-08-04T11:52:15;3.70;;;2.83;;
7444;SDS011;3764;48.126;11.594;2022-08-04T11:54:47;3.30;;;2.77;;
7444;SDS011;3764;48.126;11.594;2022-08-04T11:57:15;3.40;;;3.10;;
7444;SDS011;3764;48.126;11.594;2022-08-04T11:59:42;3.30;;;2.80;;
7444;SDS011;3764;48.126;11.594;2022-08-04T12:02:21;4.50;;;3.40;;
7444;SDS011;3764;48.126;11.594;2022-08-04T12:05:05;4.27;;;3.30;;
7444;SDS011;3764;48.126;11.594;2022-08-04T12:07:42;4.33;;;3.93;;
7444;SDS011;3764;48.126;11.594;2022-08-04T12:10:23;3.20;;;2.90;;
7444;SDS011;3764;48.126;11.594;2022-08-04T12:12:58;3.03;;;2.50;;
7444;SDS011;3764;48.126;11.594;2022-08-04T12:15:34;4.53;;;2.90;;
7444;SDS011;3764;48.126;11.594;2022-08-04T12:18:13;3.70;;;2.57;;
7444;SDS011;3764;48.126;11.594;2022-08-04T12:20:48;3.00;;;2.80;;
7444;SDS011;3764;48.126;11.594;2022-08-04T12:23:19;3.27;;;2.67;;
7444;SDS011;3764;48.126;11.594;2022-08-04T12:25:51;4.80;;;3.27;;
7444;SDS011;3764;48.126;11.594;2022-08-04T12:28:23;3.23;;;2.70;;
7444;SDS011;3764;48.126;11.594;2022-08-04T12:30:57;3.03;;;2.67;;
7444;SDS011;3764;48.126;11.594;2022-08-04T12:33:31;3.30;;;3.10;;
7444;SDS011;3764;48.126;11.594;2022-08-04T12:36:05;2.93;;;2.53;;
7444;SDS011;3764;48.126;11.594;2022-08-04T12:38:43;2.83;;;2.60;;
7444;SDS011;3764;48.126;11.594;2022-08-04T12:41:18;3.23;;;2.93;;
7444;SDS011;3764;48.126;11.594;2022-08-04T12:43:49;2.97;;;2.67;;
7444;SDS011;3764;48.126;11.594;2022-08-04T12:46:19;3.37;;;3.07;;
7444;SDS011;3764;48.126;11.594;2022-08-04T12:48:48;5.30;;;4.83;;
7444;SDS011;3764;48.126;11.594;2022-08-04T12:51:15;5.43;;;3.80;;
7444;SDS011;3764;48.126;11.594;2022-08-04T12:53:45;3.60;;;3.03;;
7444;SDS011;3764;48.126;11.594;2022-08-04T12:56:13;2.70;;;2.50;;
7444;SDS011;3764;48.126;11.594;2022-08-04T12:58:45;3.10;;;2.80;;
7444;SDS011;3764;48.126;11.594;2022-08-04T13:01:16;3.40;;;3.10;;
7444;SDS011;3764;48.126;11.594;2022-08-04T13:03:46;4.37;;;3.97;;
7444;SDS011;3764;48.126;11.594;2022-08-04T13:06:22;3.13;;;2.40;;
7444;SDS011;3764;48.126;11.594;2022-08-04T13:08:51;3.20;;;2.60;;
7444;SDS011;3764;48.126;11.594;2022-08-04T13:25:13;3.23;;;2.93;;
7444;SDS011;3764;48.126;11.594;2022-08-04T13:35:09;3.37;;;3.07;;
7444;SDS011;3764;48.126;11.594;2022-08-04T13:44:53;2.80;;;2.60;;
7444;SDS011;3764;48.126;11.594;2022-08-04T13:47:24;4.10;;;3.00;;
7444;SDS011;3764;48.126;11.594;2022-08-04T13:52:51;3.60;;;3.30;;
7444;SDS011;3764;48.126;11.594;2022-08-04T13:55:21;3.63;;;3.00;;
7444;SDS011;3764;48.126;11.594;2022-08-04T14:01:41;2.70;;;2.50;;
7444;SDS011;3764;48.126;11.594;2022-08-04T14:04:11;4.37;;;3.37;;
7444;SDS011;3764;48.126;11.594;2022-08-04T14:06:44;6.33;;;3.40;;
7444;SDS011;3764;48.126;11.594;2022-08-04T14:09:15;2.80;;;2.60;;
7444;SDS011;3764;48.126;11.594;2022-08-04T14:11:44;3.47;;;3.17;;
7444;SDS011;3764;48.126;11.594;2022-08-04T14:14:15;3.17;;;2.87;;
7444;SDS011;3764;48.126;11.594;2022-08-04T14:19:36;4.97;;;4.47;;
7444;SDS011;3764;48.126;11.594;2022-08-04T14:22:26;4.33;;;3.33;;
7444;SDS011;3764;48.126;11.594;2022-08-04T14:24:59;4.47;;;4.07;;
7444;SDS011;3764;48.126;11.594;2022-08-04T14:27:29;4.00;;;3.60;;
7444;SDS011;3764;48.126;11.594;2022-08-04T14:30:07;5.40;;;2.90;;
7444;SDS011;3764;48.126;11.594;2022-08-04T15:02:46;3.90;;;2.80;;
7444;SDS011;3764;48.126;11.594;2022-08-04T15:05:13;4.80;;;3.40;;
7444;SDS011;3764;48.126;11.594;2022-08-04T15:07:41;3.20;;;2.90;;
7444;SDS011;3764;48.126;11.594;2022-08-04T15:10:08;3.63;;;2.70;;
7444;SDS011;3764;48.126;11.594;2022-08-04T15:12:35;6.70;;;3.47;;
7444;SDS011;3764;48.126;11.594;2022-08-04T15:15:03;3.40;;;3.10;;
7444;SDS011;3764;48.126;11.594;2022-08-04T15:17:30;3.77;;;3.43;;
7444;SDS011;3764;48.126;11.594;2022-08-04T15:19:59;3.50;;;3.20;;
7444;SDS011;3764;48.126;11.594;2022-08-04T15:22:27;3.80;;;3.50;;
7444;SDS011;3764;48.126;11.594;2022-08-04T15:24:55;3.53;;;3.00;;
7444;SDS011;3764;48.126;11.594;2022-08-04T15:27:23;2.90;;;2.70;;
7444;SDS011;3764;48.126;11.594;2022-08-04T15:29:53;4.90;;;3.27;;
7444;SDS011;3764;48.126;11.594;2022-08-04T15:32:23;3.50;;;3.20;;
7444;SDS011;3764;48.126;11.594;2022-08-04T15:34:51;5.73;;;3.40;;
7444;SDS011;3764;48.126;11.594;2022-08-04T15:37:28;4.30;;;3.90;;
7444;SDS011;3764;48.126;11.594;2022-08-04T15:40:03;5.47;;;4.47;;
7444;SDS011;3764;48.126;11.594;2022-08-04T15:42:35;3.20;;;2.90;;
7444;SDS011;3764;48.126;11.594;2022-08-04T15:45:11;4.60;;;3.20;;
7444;SDS011;3764;48.126;11.594;2022-08-04T15:48:00;4.50;;;3.10;;
7444;SDS011;3764;48.126;11.594;2022-08-04T15:50:59;3.50;;;3.20;;
7444;SDS011;3764;48.126;11.594;2022-08-04T15:53:30;4.30;;;3.20;;
7444;SDS011;3764;48.126;11.594;2022-08-04T15:59:10;4.03;;;3.07;;
7444;SDS011;3764;48.126;11.594;2022-08-04T16:01:37;3.83;;;3.43;;
7444;SDS011;3764;48.126;11.594;2022-08-04T16:04:21;3.30;;;3.00;;
7444;SDS011;3764;48.126;11.594;2022-08-04T16:06:50;4.23;;;3.83;;
7444;SDS011;3764;48.126;11.594;2022-08-04T16:09:31;3.47;;;3.07;;
7444;SDS011;3764;48.126;11.594;2022-08-04T16:11:58;3.90;;;3.60;;
7444;SDS011;3764;48.126;11.594;2022-08-04T16:14:32;5.20;;;3.90;;
7444;SDS011;3764;48.126;11.594;2022-08-04T16:17:15;3.63;;;3.20;;
7444;SDS011;3764;48.126;11.594;2022-08-04T16:20:00;7.20;;;3.60;;
7444;SDS011;3764;48.126;11.594;2022-08-04T16:22:34;5.20;;;4.47;;
7444;SDS011;3764;48.126;11.594;2022-08-04T16:25:06;10.83;;;7.70;;
7444;SDS011;3764;48.126;11.594;2022-08-04T16:27:35;9.87;;;7.50;;
7444;SDS011;3764;48.126;11.594;2022-08-04T16:30:04;7.23;;;6.63;;
7444;SDS011;3764;48.126;11.594;2022-08-04T16:32:40;4.90;;;4.33;;
7444;SDS011;3764;48.126;11.594;2022-08-04T16:35:18;5.13;;;4.63;;
7444;SDS011;3764;48.126;11.594;2022-08-04T16:37:49;6.50;;;5.90;;
7444;SDS011;3764;48.126;11.594;2022-08-04T16:40:25;5.37;;;4.90;;
7444;SDS011;3764;48.126;11.594;2022-08-04T16:43:03;4.60;;;4.17;;
7444;SDS011;3764;48.126;11.594;2022-08-04T16:48:24;5.43;;;4.83;;
7444;SDS011;3764;48.126;11.594;2022-08-04T16:50:54;4.00;;;3.60;;
7444;SDS011;3764;48.126;11.594;2022-08-04T16:53:26;4.13;;;3.73;;
7444;SDS011;3764;48.126;11.594;2022-08-04T16:55:59;3.57;;;3.20;;
7444;SDS011;3764;48.126;11.594;2022-08-04T16:58:27;3.07;;;2.80;;
7444;SDS011;3764;48.126;11.594;2022-08-04T17:00:56;4.00;;;3.60;;
7444;SDS011;3764;48.126;11.594;2022-08-04T17:03:31;4.93;;;4.43;;
7444;SDS011;3764;48.126;11.594;2022-08-04T17:06:08;5.77;;;5.00;;
7444;SDS011;3764;48.126;11.594;2022-08-04T17:08:37;5.20;;;4.67;;
7444;SDS011;3764;48.126;11.594;2022-08-04T17:11:06;5.30;;;4.80;;
7444;SDS011;3764;48.126;11.594;2022-08-04T17:13:34;5.13;;;4.63;;
7444;SDS011;3764;48.126;11.594;2022-08-04T17:16:03;4.70;;;4.27;;
7444;SDS011;3764;48.126;11.594;2022-08-04T17:18:34;5.10;;;4.70;;
7444;SDS011;3764;48.126;11.594;2022-08-04T17:21:03;4.83;;;4.07;;
7444;SDS011;3764;48.126;11.594;2022-08-04T17:23:33;3.93;;;3.63;;
7444;SDS011;3764;48.126;11.594;2022-08-04T17:26:03;4.27;;;3.87;;
7444;SDS011;3764;48.126;11.594;2022-08-04T17:28:34;4.97;;;4.53;;
7444;SDS011;3764;48.126;11.594;2022-08-04T17:31:03;4.67;;;4.23;;
7444;SDS011;3764;48.126;11.594;2022-08-04T17:33:32;5.27;;;4.07;;
7444;SDS011;3764;48.126;11.594;2022-08-04T17:36:00;5.90;;;4.57;;
7444;SDS011;3764;48.126;11.594;2022-08-04T17:38:34;5.80;;;4.77;;
7444;SDS011;3764;48.126;11.594;2022-08-04T17:41:04;5.53;;;5.03;;
7444;SDS011;3764;48.126;11.594;2022-08-04T17:43:44;4.57;;;4.17;;
7444;SDS011;3764;48.126;11.594;2022-08-04T17:46:12;9.43;;;5.70;;
7444;SDS011;3764;48.126;11.594;2022-08-04T17:48:41;5.63;;;5.03;;
7444;SDS011;3764;48.126;11.594;2022-08-04T17:51:11;9.03;;;6.50;;
7444;SDS011;3764;48.126;11.594;2022-08-04T17:53:39;6.83;;;6.20;;
7444;SDS011;3764;48.126;11.594;2022-08-04T17:59:08;7.47;;;6.70;;
7444;SDS011;3764;48.126;11.594;2022-08-04T18:01:57;8.63;;;6.30;;
7444;SDS011;3764;48.126;11.594;2022-08-04T18:04:32;9.20;;;8.30;;
7444;SDS011;3764;48.126;11.594;2022-08-04T18:07:04;11.83;;;10.67;;
7444;SDS011;3764;48.126;11.594;2022-08-04T18:09:33;11.00;;;10.00;;
7444;SDS011;3764;48.126;11.594;2022-08-04T18:12:02;11.73;;;10.60;;
7444;SDS011;3764;48.126;11.594;2022-08-04T18:14:39;11.40;;;10.40;;
7444;SDS011;3764;48.126;11.594;2022-08-04T18:17:10;10.73;;;9.83;;
7444;SDS011;3764;48.126;11.594;2022-08-04T18:19:38;10.30;;;9.30;;
7444;SDS011;3764;48.126;11.594;2022-08-04T18:22:16;10.23;;;8.50;;
7444;SDS011;3764;48.126;11.594;2022-08-04T18:24:43;10.00;;;9.10;;
7444;SDS011;3764;48.126;11.594;2022-08-04T18:27:10;13.97;;;12.37;;
7444;SDS011;3764;48.126;11.594;2022-08-04T18:29:39;13.67;;;11.57;;
7444;SDS011;3764;48.126;11.594;2022-08-04T18:32:06;12.17;;;10.97;;
7444;SDS011;3764;48.126;11.594;2022-08-04T18:34:33;16.40;;;14.43;;
7444;SDS011;3764;48.126;11.594;2022-08-04T18:37:01;11.93;;;10.53;;
7444;SDS011;3764;48.126;11.594;2022-08-04T18:39:28;13.03;;;11.60;;
7444;SDS011;3764;48.126;11.594;2022-08-04T18:41:55;13.43;;;9.43;;
7444;SDS011;3764;48.126;11.594;2022-08-04T18:44:23;11.00;;;9.90;;
7444;SDS011;3764;48.126;11.594;2022-08-04T18:54:43;10.30;;;9.30;;
7444;SDS011;3764;48.126;11.594;2022-08-04T18:57:10;9.80;;;8.90;;
7444;SDS011;3764;48.126;11.594;2022-08-04T18:59:38;9.93;;;9.00;;
7444;SDS011;3764;48.126;11.594;2022-08-04T19:02:05;9.93;;;9.03;;
7444;SDS011;3764;48.126;11.594;2022-08-04T19:04:32;10.43;;;9.43;;
7444;SDS011;3764;48.126;11.594;2022-08-04T19:07:00;9.20;;;8.30;;
7444;SDS011;3764;48.126;11.594;2022-08-04T19:09:27;9.93;;;8.93;;
7444;SDS011;3764;48.126;11.594;2022-08-04T19:14:27;10.33;;;8.80;;
7444;SDS011;3764;48.126;11.594;2022-08-04T19:16:54;10.73;;;9.30;;
7444;SDS011;3764;48.126;11.594;2022-08-04T19:19:21;11.20;;;9.50;;
7444;SDS011;3764;48.126;11.594;2022-08-04T19:21:48;11.90;;;9.50;;
7444;SDS011;3764;48.126;11.594;2022-08-04T19:24:15;11.20;;;10.10;;
7444;SDS011;3764;48.126;11.594;2022-08-04T19:26:43;10.43;;;9.43;;
7444;SDS011;3764;48.126;11.594;2022-08-04T19:29:10;10.23;;;9.23;;
7444;SDS011;3764;48.126;11.594;2022-08-04T19:31:40;10.60;;;9.50;;
7444;SDS011;3764;48.126;11.594;2022-08-04T19:34:07;10.83;;;9.73;;
7444;SDS011;3764;48.126;11.594;2022-08-04T19:36:35;11.13;;;9.70;;
7444;SDS011;3764;48.126;11.594;2022-08-04T19:39:03;11.20;;;9.83;;
7444;SDS011;3764;48.126;11.594;2022-08-04T19:41:32;10.37;;;9.27;;
7444;SDS011;3764;48.126;11.594;2022-08-04T19:44:00;11.03;;;9.93;;
7444;SDS011;3764;48.126;11.594;2022-08-04T19:46:28;11.17;;;10.17;;
7444;SDS011;3764;48.126;11.594;2022-08-04T19:48:56;11.07;;;10.03;;
7444;SDS011;3764;48.126;11.594;2022-08-04T19:51:23;11.17;;;10.17;;
7444;SDS011;3764;48.126;11.594;2022-08-04T19:53:50;10.10;;;9.20;;
7444;SDS011;3764;48.126;11.594;2022-08-04T19:56:17;10.27;;;9.30;;
7444;SDS011;3764;48.126;11.594;2022-08-04T19:58:45;11.00;;;10.00;;
7444;SDS011;3764;48.126;11.594;2022-08-04T20:01:12;10.47;;;9.57;;
7444;SDS011;3764;48.126;11.594;2022-08-04T20:03:39;10.53;;;9.43;;
7444;SDS011;3764;48.126;11.594;2022-08-04T20:06:09;10.57;;;9.57;;
7444;SDS011;3764;48.126;11.594;2022-08-04T20:08:36;12.10;;;10.90;;
7444;SDS011;3764;48.126;11.594;2022-08-04T20:11:03;10.77;;;9.87;;
7444;SDS011;3764;48.126;11.594;2022-08-04T20:13:30;9.70;;;8.80;;
7444;SDS011;3764;48.126;11.594;2022-08-04T20:15:58;10.07;;;9.17;;
7444;SDS011;3764;48.126;11.594;2022-08-04T20:18:25;9.93;;;8.93;;
7444;SDS011;3764;48.126;11.594;2022-08-04T20:20:53;9.33;;;7.63;;
7444;SDS011;3764;48.126;11.594;2022-08-04T20:23:22;9.97;;;9.07;;